K9NRG Weather Reports


time (UTC)temp
F
wind
direction
speed
knots
gust
knots
rain 1hr
in
rain 24hr
in
rain mn
in
humidity
%
barometer
mb
20260906230002 84 6 0.9 5.2 0.00 0.00 0.00 18 1001.1
20260906225002 84 45 0.9 6.1 0.00 0.00 0.00 18 1001.0
20260906223001 85 274 0.0 7.0 0.00 0.00 0.00 18 1001.0
20260906222002 86 352 0.9 5.2 0.00 0.00 0.00 17 1000.7
20260906221002 85 21 1.7 7.0 0.00 0.00 0.00 18 1000.8
20260906220002 85 52 0.0 4.3 0.00 0.00 0.00 18 1001.4
20260906214002 86 359 0.9 10.4 0.00 0.00 0.00 17 1000.7
20260906213002 86 41 0.0 5.2 0.00 0.00 0.00 18 1000.7
20260906211002 86 40 0.9 10.4 0.00 0.00 0.00 18 1001.1
20260906210002 85 350 2.6 6.1 0.00 0.00 0.00 19 1001.6
20260906202002 84 143 0.9 7.0 0.00 0.00 0.00 18 1002.0
20260906201002 85 68 0.0 2.6 0.00 0.00 0.00 18 1001.9
20260906195002 84 182 2.6 8.7 0.00 0.00 0.00 19 1001.9
20260906194002 87 5 0.9 6.1 0.00 0.00 0.00 18 1001.6
20260906193001 85 358 0.9 5.2 0.00 0.00 0.00 19 1002.2
20260906192002 83 230 0.9 8.7 0.00 0.00 0.00 19 1003.0
20260906191001 83 180 0.9 7.0 0.00 0.00 0.00 19 1003.0
20260906190002 84 215 0.9 5.2 0.00 0.00 0.00 19 1002.6
20260906185002 82 103 0.0 6.1 0.00 0.00 0.00 20 1003.2
20260906184002 81 71 0.9 7.8 0.00 0.00 0.00 21 1003.4
20260906183001 83 161 0.0 1.7 0.00 0.00 0.00 20 1003.1
20260906182002 80 26 0.0 6.1 0.00 0.00 0.00 21 1004.1
20260906181002 79 140 1.7 7.0 0.00 0.00 0.00 22 1004.6
20260906180001 81 0 0.0 5.2 0.00 0.00 0.00 21 1004.1
20260906175002 79 84 0.0 1.7 0.00 0.00 0.00 22 1004.7
20260906174002 77 82 0.9 5.2 0.00 0.00 0.00 23 1005.5
20260906173001 76 69 0.9 2.6 0.00 0.00 0.00 24 1005.5
20260906172002 76 66 0.0 4.3 0.00 0.00 0.00 24 1005.6
20260906171002 75 73 0.0 2.6 0.00 0.00 0.00 24 1006.4
20260906170003 75 73 0.9 2.6 0.00 0.00 0.00 25 1006.5
20260906164002 73 72 1.7 5.2 0.00 0.00 0.00 27 1005.9
20260906163002 71 72 0.9 2.6 0.00 0.00 0.00 27 1006.7
20260906162002 71 72 0.9 2.6 0.00 0.00 0.00 28 1006.5
20260906160003 71 75 0.9 6.1 0.00 0.00 0.00 28 1006.6
20260906155003 71 80 0.9 5.2 0.00 0.00 0.00 29 1005.6
20260906154003 70 86 0.9 5.2 0.00 0.00 0.00 31 1005.7
20260906153002 69 68 0.9 4.3 0.00 0.00 0.00 33 1006.3
20260906152003 67 73 0.9 5.2 0.00 0.00 0.00 36 1006.9
20260906150003 66 121 0.9 2.6 0.00 0.00 0.00 36 1007.1
20260906145003 64 127 0.0 0.9 0.00 0.00 0.00 39 1007.1
20260906144004 62 127 0.0 0.0 0.00 0.00 0.00 43 1007.5
20260906142003 60 127 0.0 0.9 0.00 0.00 0.00 47 1007.9
20260906140003 57 127 0.0 0.9 0.00 0.00 0.00 52 1008.3
20260906135003 56 127 0.0 0.9 0.00 0.00 0.00 54 1007.6
20260906134003 53 127 0.0 0.0 0.00 0.00 0.00 55 1008.5
20260906132003 51 127 0.0 0.0 0.00 0.00 0.00 59 1008.8
20260906131003 51 127 0.0 0.0 0.00 0.00 0.00 58 1008.7
20260906130003 51 127 0.0 0.0 0.00 0.00 0.00 57 1008.7
20260906125003 52 152 0.0 0.0 0.00 0.00 0.00 56 1007.0
20260906123003 52 154 0.0 0.0 0.00 0.00 0.00 56 1006.7
20260906122003 52 153 0.0 0.0 0.00 0.00 0.00 56 1006.7
20260906121003 52 154 0.0 0.0 0.00 0.00 0.00 56 1006.6
20260906120002 52 154 0.0 0.0 0.00 0.00 0.00 57 1006.5
20260906114003 52 154 0.0 0.0 0.00 0.00 0.00 57 1005.7
20260906113003 52 154 0.0 0.0 0.00 0.00 0.00 57 1005.6
20260906112002 52 154 0.0 0.0 0.00 0.00 0.00 57 1005.6
20260906111003 52 154 0.0 0.0 0.00 0.00 0.00 57 1005.6
20260906110003 52 154 0.0 0.0 0.00 0.00 0.00 56 1005.5
20260906105002 53 154 0.0 0.0 0.00 0.00 0.00 56 1004.5
20260906104003 53 154 0.0 0.0 0.00 0.00 0.00 55 1004.4
20260906103003 53 154 0.0 0.0 0.00 0.00 0.00 55 1004.5
20260906102003 54 154 0.0 0.0 0.00 0.00 0.00 55 1004.5
20260906101003 54 154 0.0 0.0 0.00 0.00 0.00 54 1004.6
20260906100003 54 154 0.0 0.0 0.00 0.00 0.00 53 1004.6
20260906095003 54 153 0.0 0.0 0.00 0.00 0.00 53 1005.2
20260906094003 55 154 0.0 0.0 0.00 0.00 0.00 52 1004.5
20260906093003 55 154 0.0 0.0 0.00 0.00 0.00 52 1004.5
20260906092003 55 154 0.0 0.0 0.00 0.00 0.00 51 1004.6
20260906091003 55 154 0.0 0.0 0.00 0.00 0.00 51 1004.6
20260906090003 56 154 0.0 0.0 0.00 0.00 0.00 50 1004.4
20260906085003 56 154 0.0 0.0 0.00 0.00 0.00 50 1003.5
20260906084003 56 154 0.0 0.0 0.00 0.00 0.00 51 1003.7
20260906082003 55 154 0.0 0.0 0.00 0.00 0.00 50 1004.2
20260906081003 55 154 0.0 0.0 0.00 0.00 0.00 50 1004.1
20260906080002 56 154 0.0 0.0 0.00 0.00 0.00 49 1003.7
20260906075003 56 154 0.0 0.0 0.00 0.00 0.00 49 1003.7
20260906074003 56 154 0.0 0.0 0.00 0.00 0.00 49 1003.7
20260906073003 56 154 0.0 0.0 0.00 0.00 0.00 48 1003.9
20260906072003 56 154 0.0 0.0 0.00 0.00 0.00 48 1003.8
20260906071002 56 154 0.0 0.0 0.00 0.00 0.00 47 1003.9
20260906070002 56 154 0.0 0.0 0.00 0.00 0.00 47 1004.0
20260906065003 57 154 0.0 0.0 0.00 0.00 0.00 47 1004.5
20260906064002 57 154 0.0 0.0 0.00 0.00 0.00 47 1004.5
20260906063003 57 154 0.0 0.0 0.00 0.00 0.00 47 1004.3
20260906062003 57 154 0.0 0.0 0.00 0.00 0.00 46 1004.4
20260906061002 57 154 0.0 0.0 0.00 0.00 0.00 46 1004.3
20260906060003 58 154 0.0 0.0 0.00 0.00 0.00 45 1004.2
20260906055003 58 154 0.0 0.0 0.00 0.00 0.00 44 1005.6
20260906054004 59 154 0.0 0.0 0.00 0.00 0.00 43 1005.1
20260906053003 60 154 0.0 0.0 0.00 0.00 0.00 41 1005.1
20260906052003 60 154 0.0 0.0 0.00 0.00 0.00 41 1004.9
20260906051003 60 154 0.0 0.0 0.00 0.00 0.00 40 1005.0
20260906050003 61 154 0.0 0.0 0.00 0.00 0.00 40 1004.4
20260906045003 62 154 0.0 0.0 0.00 0.00 0.00 39 1003.9
20260906044004 62 154 0.0 0.0 0.00 0.00 0.00 38 1004.0
20260906043004 63 154 0.0 0.9 0.00 0.00 0.00 36 1003.6
20260906042003 64 154 0.0 0.0 0.00 0.00 0.00 35 1003.4
20260906041004 65 154 0.0 0.0 0.00 0.00 0.00 34 1003.4
20260906040003 66 154 0.0 0.0 0.00 0.00 0.00 33 1002.9
20260906035003 66 154 0.0 0.9 0.00 0.00 0.00 32 1003.9
20260906033003 68 154 0.0 1.7 0.00 0.00 0.00 30 1003.4
20260906032003 68 153 0.0 0.9 0.00 0.00 0.00 29 1003.3
20260906030003 69 150 0.9 2.6 0.00 0.00 0.00 28 1002.8
20260906025003 70 162 0.0 2.6 0.00 0.00 0.00 27 1003.7
20260906024003 70 174 0.9 2.6 0.00 0.00 0.00 27 1003.5
20260906023003 70 188 0.9 6.1 0.00 0.00 0.00 26 1003.3
20260906022003 70 165 0.9 4.3 0.00 0.00 0.00 27 1003.1
20260906021003 71 193 0.0 5.2 0.00 0.00 0.00 27 1002.5
20260906015003 72 153 0.0 4.3 0.00 0.00 0.00 26 1003.9
20260906014003 73 179 0.9 2.6 0.00 0.00 0.00 26 1003.8
20260906013003 74 184 0.0 4.3 0.00 0.00 0.00 26 1003.6
20260906012004 75 176 0.9 2.6 0.00 0.00 0.00 26 1003.1
20260906010003 76 219 0.0 2.6 0.00 0.00 0.00 25 1003.2
20260906004003 78 345 0.0 5.2 0.00 0.00 0.00 24 1004.1
20260906003003 79 358 0.0 2.6 0.00 0.00 0.00 23 1004.1
20260906002003 80 0 0.0 4.3 0.00 0.00 0.00 22 1003.4
20260906001004 80 208 0.9 7.0 0.00 0.00 0.00 22 1003.3
20260906000003 81 24 0.0 1.7 0.00 0.00 0.00 21 1003.2
20260905235003 81 1 1.7 7.0 0.00 0.00 0.00 21 1003.2
20260905234003 81 359 1.7 5.2 0.00 0.00 0.00 21 1003.2
20260905233004 82 10 0.0 7.0 0.00 0.00 0.00 20 1002.9
20260905232003 81 5 0.9 6.1 0.00 0.00 0.00 19 1003.5
20260905231004 82 62 0.0 2.6 0.00 0.00 0.00 20 1002.7